createdAt,value
2024-02-02T00:00:06.523Z,3.13
2024-02-02T00:02:38.556Z,3.00
2024-02-02T00:05:06.442Z,2.67
2024-02-02T00:07:34.155Z,2.70
2024-02-02T00:10:01.718Z,3.88
2024-02-02T00:12:29.377Z,2.88
2024-02-02T00:14:58.980Z,2.75
2024-02-02T00:17:26.171Z,3.17
2024-02-02T00:19:53.140Z,3.20
2024-02-02T00:22:22.120Z,2.80
2024-02-02T00:24:49.155Z,2.85
2024-02-02T00:27:16.775Z,3.65
2024-02-02T00:29:46.876Z,3.08
2024-02-02T00:32:17.196Z,2.90
2024-02-02T00:34:44.293Z,3.45
2024-02-02T00:37:11.569Z,2.78
2024-02-02T00:39:39.305Z,2.80
2024-02-02T00:42:06.422Z,3.08
2024-02-02T00:44:33.413Z,2.40
2024-02-02T00:47:00.383Z,3.40
2024-02-02T00:49:27.545Z,2.88
2024-02-02T00:51:54.638Z,3.80
2024-02-02T00:54:21.926Z,3.30
2024-02-02T00:56:49.030Z,4.05
2024-02-02T00:59:16.292Z,3.40
2024-02-02T01:01:43.300Z,2.95
2024-02-02T01:04:10.271Z,3.90
2024-02-02T01:06:37.472Z,4.10
2024-02-02T01:09:05.120Z,3.60
2024-02-02T01:11:32.173Z,2.78
2024-02-02T01:13:59.250Z,2.55
2024-02-02T01:16:26.224Z,2.88
2024-02-02T01:18:53.563Z,2.38
2024-02-02T01:21:20.753Z,2.90
2024-02-02T01:23:49.102Z,3.50
2024-02-02T01:26:16.162Z,2.55
2024-02-02T01:28:43.157Z,2.92
2024-02-02T01:31:10.063Z,2.80
2024-02-02T01:33:37.371Z,2.90
2024-02-02T01:36:04.585Z,2.63
2024-02-02T01:38:31.789Z,2.90
2024-02-02T01:40:58.683Z,2.63
2024-02-02T01:43:27.329Z,3.05
2024-02-02T01:45:54.358Z,2.90
2024-02-02T01:48:21.975Z,2.85
2024-02-02T01:50:49.183Z,3.15
2024-02-02T01:53:16.441Z,2.97
2024-02-02T01:55:43.674Z,3.72
2024-02-02T01:58:11.422Z,3.63
2024-02-02T02:00:38.707Z,2.60
2024-02-02T02:03:06.161Z,2.75
2024-02-02T02:05:33.376Z,2.40
2024-02-02T02:08:01.477Z,2.33
2024-02-02T02:10:30.356Z,2.67
2024-02-02T02:12:57.684Z,3.10
2024-02-02T02:15:25.281Z,2.78
2024-02-02T02:17:53.229Z,2.65
2024-02-02T02:20:24.106Z,2.55
2024-02-02T02:22:51.224Z,2.58
2024-02-02T02:25:36.329Z,3.28
2024-02-02T02:28:03.959Z,4.15
2024-02-02T02:30:31.011Z,3.28
2024-02-02T02:32:58.957Z,2.92
2024-02-02T02:35:26.182Z,2.70
2024-02-02T02:37:54.187Z,2.55
2024-02-02T02:40:21.260Z,2.92
2024-02-02T02:42:51.551Z,2.63
2024-02-02T02:45:18.741Z,3.20
2024-02-02T02:47:46.144Z,2.85
2024-02-02T02:50:13.376Z,3.65
2024-02-02T02:52:40.399Z,3.72
2024-02-02T02:55:07.708Z,3.65
2024-02-02T02:57:34.804Z,3.90
2024-02-02T03:00:01.712Z,3.75
2024-02-02T03:02:29.064Z,3.35
2024-02-02T03:04:56.141Z,3.33
2024-02-02T03:07:23.190Z,3.42
2024-02-02T03:09:50.245Z,3.78
2024-02-02T03:12:17.402Z,3.75
2024-02-02T03:14:44.478Z,3.33
2024-02-02T03:17:11.489Z,2.95
2024-02-02T03:19:38.689Z,3.80
2024-02-02T03:22:05.700Z,2.72
2024-02-02T03:24:32.763Z,3.13
2024-02-02T03:26:59.846Z,3.30
2024-02-02T03:29:26.804Z,3.42
2024-02-02T03:31:54.109Z,3.00
2024-02-02T03:34:21.237Z,3.70
2024-02-02T03:36:48.392Z,4.75
2024-02-02T03:39:15.457Z,4.97
2024-02-02T03:41:43.554Z,4.60
2024-02-02T03:44:10.610Z,4.60
2024-02-02T03:46:37.648Z,4.53
2024-02-02T03:49:04.680Z,4.20
2024-02-02T03:51:31.772Z,4.68
2024-02-02T03:53:58.793Z,4.60
2024-02-02T03:56:25.753Z,4.78
2024-02-02T03:58:52.675Z,4.72
2024-02-02T04:01:21.444Z,4.72
2024-02-02T04:03:49.935Z,5.28
2024-02-02T04:06:17.255Z,4.25
2024-02-02T04:08:44.470Z,5.32
2024-02-02T04:11:11.616Z,5.00
2024-02-02T04:13:38.596Z,5.65
2024-02-02T04:16:06.425Z,5.50
2024-02-02T04:18:33.498Z,6.57
2024-02-02T04:21:00.609Z,4.40
2024-02-02T04:23:27.525Z,4.50
2024-02-02T04:25:54.522Z,4.95
2024-02-02T04:28:21.535Z,4.50
2024-02-02T04:30:48.674Z,5.90
2024-02-02T04:33:15.895Z,5.25
2024-02-02T04:35:43.038Z,6.57
2024-02-02T04:38:10.004Z,6.22
2024-02-02T04:40:36.966Z,4.93
2024-02-02T04:43:04.293Z,5.07
2024-02-02T04:45:31.428Z,5.63
2024-02-02T04:47:58.515Z,5.38
2024-02-02T04:50:26.904Z,6.07
2024-02-02T04:52:53.901Z,6.10
2024-02-02T04:55:20.905Z,5.78
2024-02-02T04:57:48.027Z,6.25
2024-02-02T05:00:15.830Z,7.50
2024-02-02T05:02:42.907Z,5.53
2024-02-02T05:05:10.216Z,6.57
2024-02-02T05:07:37.701Z,6.40
2024-02-02T05:10:08.201Z,5.78
2024-02-02T05:12:35.594Z,5.85
2024-02-02T05:15:03.696Z,6.65
2024-02-02T05:17:30.780Z,7.10
2024-02-02T05:19:58.145Z,5.80
2024-02-02T05:22:25.125Z,5.47
2024-02-02T05:24:52.073Z,4.95
2024-02-02T05:27:19.085Z,5.55
2024-02-02T05:29:46.043Z,5.82
2024-02-02T05:32:13.375Z,6.53
2024-02-02T05:34:42.101Z,5.60
2024-02-02T05:37:09.516Z,6.43
2024-02-02T05:39:41.090Z,6.38
2024-02-02T05:42:08.244Z,6.47
2024-02-02T05:44:35.278Z,6.00
2024-02-02T05:47:02.236Z,5.03
2024-02-02T05:49:29.445Z,6.90
2024-02-02T05:51:56.487Z,6.07
2024-02-02T05:54:23.734Z,4.85
2024-02-02T05:56:50.701Z,5.97
2024-02-02T05:59:17.757Z,6.28
2024-02-02T06:01:44.697Z,5.28
2024-02-02T06:04:12.212Z,6.38
2024-02-02T06:06:39.321Z,5.68
2024-02-02T06:09:06.500Z,5.50
2024-02-02T06:11:33.522Z,5.65
2024-02-02T06:14:00.503Z,5.50
2024-02-02T06:16:27.466Z,5.90
2024-02-02T06:18:55.589Z,6.13
2024-02-02T06:21:22.740Z,6.15
2024-02-02T06:23:49.797Z,5.75
2024-02-02T06:26:17.057Z,6.88
2024-02-02T06:28:44.192Z,6.50
2024-02-02T06:31:11.426Z,5.80
2024-02-02T06:33:38.452Z,6.47
2024-02-02T06:36:05.833Z,6.03
2024-02-02T06:38:32.836Z,8.27
2024-02-02T06:40:59.869Z,6.95
2024-02-02T06:43:26.783Z,6.60
2024-02-02T06:45:53.851Z,6.30
2024-02-02T06:48:22.571Z,5.95
2024-02-02T06:50:50.170Z,6.25
2024-02-02T06:53:17.468Z,6.32
2024-02-02T06:55:46.059Z,6.05
2024-02-02T06:58:42.919Z,7.70
2024-02-02T07:01:11.419Z,6.90
2024-02-02T07:03:39.276Z,6.75
2024-02-02T07:06:07.657Z,6.05
2024-02-02T07:08:34.851Z,6.70
2024-02-02T07:11:13.829Z,6.97
2024-02-02T07:13:50.842Z,6.95
2024-02-02T07:16:31.300Z,7.47
2024-02-02T07:18:58.792Z,6.55
2024-02-02T07:21:33.671Z,6.97
2024-02-02T07:24:01.374Z,8.70
2024-02-02T07:26:32.083Z,6.90
2024-02-02T07:28:59.891Z,6.45
2024-02-02T07:31:38.432Z,6.97
2024-02-02T07:34:46.184Z,6.78
2024-02-02T07:37:50.659Z,7.72
2024-02-02T07:41:04.353Z,6.50
2024-02-02T07:43:34.128Z,8.13
2024-02-02T07:46:03.584Z,6.85
2024-02-02T07:48:34.627Z,7.40
2024-02-02T07:51:02.418Z,7.85
2024-02-02T07:53:30.224Z,7.90
2024-02-02T07:55:57.454Z,8.57
2024-02-02T07:58:24.444Z,8.07
2024-02-02T08:00:53.101Z,7.28
2024-02-02T08:03:20.460Z,8.32
2024-02-02T08:05:48.240Z,7.85
2024-02-02T08:08:18.752Z,7.72
2024-02-02T08:10:48.624Z,7.40
2024-02-02T08:13:17.278Z,8.30
2024-02-02T08:15:44.598Z,6.68
2024-02-02T08:18:12.599Z,8.57
2024-02-02T08:20:39.901Z,7.40
2024-02-02T08:23:07.362Z,7.18
2024-02-02T08:25:35.278Z,7.38
2024-02-02T08:28:03.074Z,6.25
2024-02-02T08:30:30.335Z,6.35
2024-02-02T08:32:57.910Z,6.60
2024-02-02T08:35:26.926Z,5.60
2024-02-02T08:38:03.717Z,6.43
2024-02-02T08:40:43.708Z,5.75
2024-02-02T08:43:18.806Z,5.82
2024-02-02T08:46:11.784Z,5.82
2024-02-02T08:48:49.630Z,5.30
2024-02-02T08:51:23.145Z,5.50
2024-02-02T08:53:55.805Z,5.40
2024-02-02T08:56:22.933Z,5.50
2024-02-02T08:58:49.891Z,5.00
2024-02-02T09:01:43.732Z,5.97
2024-02-02T09:05:07.768Z,5.05
2024-02-02T09:07:35.074Z,5.38
2024-02-02T09:10:05.061Z,5.30
2024-02-02T09:12:35.213Z,5.15
2024-02-02T09:15:02.426Z,4.50
2024-02-02T09:17:31.744Z,4.53
2024-02-02T09:19:59.474Z,4.25
2024-02-02T09:22:28.293Z,4.80
2024-02-02T09:24:55.591Z,4.60
2024-02-02T09:27:33.855Z,4.85
2024-02-02T09:30:05.840Z,4.35
2024-02-02T09:32:32.940Z,4.43
2024-02-02T09:35:03.942Z,4.50
2024-02-02T09:37:52.232Z,4.55
2024-02-02T09:41:03.727Z,4.97
2024-02-02T09:43:58.375Z,4.35
2024-02-02T09:46:57.916Z,3.90
2024-02-02T09:49:53.740Z,4.80
2024-02-02T09:55:41.756Z,4.80
2024-02-02T09:59:01.641Z,4.88
2024-02-02T10:01:58.821Z,4.82
2024-02-02T10:04:59.542Z,4.13
2024-02-02T10:07:43.945Z,3.50
2024-02-02T10:10:23.578Z,4.03
2024-02-02T10:13:12.205Z,4.38
2024-02-02T10:16:02.475Z,4.07
2024-02-02T10:18:59.496Z,3.45
2024-02-02T10:21:48.920Z,3.55
2024-02-02T10:25:01.094Z,3.67
2024-02-02T10:27:40.080Z,3.25
2024-02-02T10:30:39.116Z,3.40
2024-02-02T10:33:30.169Z,3.33
2024-02-02T10:37:00.351Z,2.80
2024-02-02T10:39:58.143Z,3.08
2024-02-02T10:42:53.309Z,3.28
2024-02-02T10:45:47.765Z,3.17
2024-02-02T10:49:02.325Z,3.58
2024-02-02T10:52:00.271Z,3.63
2024-02-02T10:55:04.084Z,3.35
2024-02-02T10:57:47.809Z,3.33
2024-02-02T11:00:25.452Z,2.67
2024-02-02T11:03:18.045Z,3.60
2024-02-02T11:05:54.364Z,4.10
2024-02-02T11:08:24.821Z,3.40
2024-02-02T11:11:08.835Z,3.33
2024-02-02T11:13:56.851Z,3.63
2024-02-02T11:16:32.735Z,3.50
2024-02-02T11:19:38.418Z,4.05
2024-02-02T11:22:42.483Z,3.85
2024-02-02T11:25:48.626Z,3.95
2024-02-02T11:28:28.661Z,3.53
2024-02-02T11:31:30.719Z,2.83
2024-02-02T11:34:35.954Z,2.88
2024-02-02T11:37:38.524Z,2.55
2024-02-02T11:40:09.652Z,2.92
2024-02-02T11:42:41.798Z,3.28
2024-02-02T11:45:20.260Z,3.58
2024-02-02T11:48:02.974Z,3.15
2024-02-02T11:50:41.196Z,2.70
2024-02-02T11:54:01.969Z,2.35
2024-02-02T11:56:35.793Z,3.10
2024-02-02T11:59:13.608Z,2.25
2024-02-02T12:02:07.435Z,3.63
2024-02-02T12:05:04.021Z,2.80
2024-02-02T12:08:01.850Z,3.75
2024-02-02T12:10:31.009Z,2.70
2024-02-02T12:13:04.819Z,2.40
2024-02-02T12:15:32.106Z,3.25
2024-02-02T12:18:03.463Z,3.38
2024-02-02T12:20:32.305Z,2.92
2024-02-02T12:22:59.954Z,2.70
2024-02-02T12:25:28.923Z,3.00
2024-02-02T12:27:56.223Z,2.50
2024-02-02T12:30:23.460Z,3.00
2024-02-02T12:32:57.511Z,2.65
2024-02-02T12:35:26.670Z,2.40
2024-02-02T12:37:54.307Z,2.30
2024-02-02T12:40:21.571Z,2.38
2024-02-02T12:42:49.367Z,2.55
2024-02-02T12:45:17.751Z,2.83
2024-02-02T12:47:45.665Z,2.40
2024-02-02T12:50:19.404Z,3.00
2024-02-02T12:52:47.917Z,2.70
2024-02-02T12:55:15.771Z,2.38
2024-02-02T12:57:43.189Z,2.65
2024-02-02T13:00:17.291Z,2.55
2024-02-02T13:02:48.791Z,2.58
2024-02-02T13:05:19.189Z,3.15
2024-02-02T13:07:52.613Z,2.45
2024-02-02T13:10:45.085Z,2.50
2024-02-02T13:13:19.340Z,2.17
2024-02-02T13:15:47.378Z,1.73
2024-02-02T13:18:18.354Z,2.00
2024-02-02T13:20:53.363Z,2.22
2024-02-02T13:23:28.846Z,2.30
2024-02-02T13:25:59.989Z,2.15
2024-02-02T13:28:39.292Z,2.20
2024-02-02T13:31:20.361Z,1.85
2024-02-02T13:34:05.331Z,1.85
2024-02-02T13:36:33.612Z,1.65
2024-02-02T13:39:01.042Z,1.73
2024-02-02T13:41:32.293Z,1.45
2024-02-02T13:44:05.975Z,2.05
2024-02-02T13:46:33.888Z,1.50
2024-02-02T13:49:02.137Z,1.80
2024-02-02T13:51:30.835Z,1.90
2024-02-02T13:53:58.300Z,1.95
2024-02-02T13:56:28.152Z,2.15
2024-02-02T13:58:56.180Z,2.72
2024-02-02T14:01:28.745Z,2.40
2024-02-02T14:03:56.607Z,1.70
2024-02-02T14:06:24.976Z,1.67
2024-02-02T14:08:55.464Z,2.03
2024-02-02T14:11:28.353Z,1.58
2024-02-02T14:13:56.849Z,2.08
2024-02-02T14:16:25.826Z,1.90
2024-02-02T14:19:00.424Z,1.88
2024-02-02T14:21:30.986Z,2.00
2024-02-02T14:24:18.569Z,1.52
2024-02-02T14:27:02.414Z,1.63
2024-02-02T14:29:41.531Z,2.22
2024-02-02T14:32:09.752Z,1.85
2024-02-02T14:34:37.723Z,2.20
2024-02-02T14:37:05.144Z,2.50
2024-02-02T14:39:32.927Z,2.53
2024-02-02T14:42:01.172Z,2.40
2024-02-02T14:44:30.115Z,2.10
2024-02-02T14:46:57.636Z,1.88
2024-02-02T14:49:26.588Z,2.95
2024-02-02T14:51:54.887Z,2.50
2024-02-02T14:54:24.333Z,2.38
2024-02-02T14:56:52.786Z,1.70
2024-02-02T14:59:30.112Z,2.15
2024-02-02T15:01:57.819Z,2.83
2024-02-02T15:04:25.149Z,2.53
2024-02-02T15:06:52.828Z,2.03
2024-02-02T15:09:20.726Z,2.13
2024-02-02T15:11:47.927Z,2.35
2024-02-02T15:14:16.022Z,1.90
2024-02-02T15:16:43.177Z,1.95
2024-02-02T15:19:10.732Z,2.00
2024-02-02T15:21:37.944Z,2.60
2024-02-02T15:24:05.774Z,2.78
2024-02-02T15:26:39.917Z,2.30
2024-02-02T15:29:08.868Z,2.93
2024-02-02T15:31:35.866Z,3.10
2024-02-02T15:34:07.280Z,2.83
2024-02-02T15:36:36.113Z,2.42
2024-02-02T15:39:18.529Z,2.33
2024-02-02T15:41:53.354Z,2.42
2024-02-02T15:44:20.633Z,2.40
2024-02-02T15:46:47.748Z,2.42
2024-02-02T15:49:14.942Z,2.28
2024-02-02T15:51:42.059Z,2.75
2024-02-02T15:54:10.397Z,2.47
2024-02-02T15:56:37.616Z,2.38
2024-02-02T15:59:05.761Z,2.28
2024-02-02T16:01:32.792Z,2.42
2024-02-02T16:03:59.897Z,2.25
2024-02-02T16:06:26.937Z,2.20
2024-02-02T16:08:53.876Z,2.38
2024-02-02T16:11:20.846Z,2.63
2024-02-02T16:13:48.968Z,2.28
2024-02-02T16:16:16.021Z,2.88
2024-02-02T16:18:43.311Z,2.58
2024-02-02T16:21:12.371Z,3.05
2024-02-02T16:23:39.368Z,4.13
2024-02-02T16:26:06.329Z,2.67
2024-02-02T16:28:33.586Z,3.25
2024-02-02T16:31:06.002Z,2.90
2024-02-02T16:33:33.288Z,3.25
2024-02-02T16:36:00.542Z,3.38
2024-02-02T16:38:28.213Z,2.95
2024-02-02T16:40:55.198Z,2.80
2024-02-02T16:43:22.144Z,2.75
2024-02-02T16:45:50.701Z,2.55
2024-02-02T16:48:19.108Z,2.80
2024-02-02T16:50:46.736Z,2.50
2024-02-02T16:53:13.665Z,3.33
2024-02-02T16:55:41.488Z,3.67
2024-02-02T16:58:09.264Z,4.10
2024-02-02T17:00:36.353Z,5.88
2024-02-02T17:03:03.556Z,2.88
2024-02-02T17:05:30.601Z,2.95
2024-02-02T17:07:59.753Z,2.97
2024-02-02T17:10:26.771Z,2.65
2024-02-02T17:12:53.894Z,3.65
2024-02-02T17:15:21.256Z,3.53
2024-02-02T17:17:48.193Z,3.03
2024-02-02T17:20:18.992Z,2.95
2024-02-02T17:22:46.198Z,3.45
2024-02-02T17:25:13.403Z,3.05
2024-02-02T17:27:42.291Z,3.40
2024-02-02T17:30:10.328Z,3.10
2024-02-02T17:32:39.740Z,3.72
2024-02-02T17:35:09.399Z,3.83
2024-02-02T17:37:36.633Z,3.53
2024-02-02T17:40:04.884Z,3.60
2024-02-02T17:42:32.164Z,3.17
2024-02-02T17:44:59.215Z,3.50
2024-02-02T17:47:26.208Z,3.63
2024-02-02T17:49:56.629Z,3.60
2024-02-02T17:52:25.056Z,2.92
2024-02-02T17:54:52.132Z,3.05
2024-02-02T17:57:21.929Z,3.90
2024-02-02T17:59:48.917Z,3.50
2024-02-02T18:02:16.155Z,3.58
2024-02-02T18:07:32.596Z,3.33
2024-02-02T18:10:08.274Z,3.45
2024-02-02T18:12:38.750Z,3.65
2024-02-02T18:15:08.594Z,3.42
2024-02-02T18:17:36.126Z,3.38
2024-02-02T18:20:04.894Z,4.18
2024-02-02T18:22:32.022Z,4.30
2024-02-02T18:24:58.915Z,3.60
2024-02-02T18:27:26.022Z,3.88
2024-02-02T18:29:53.451Z,3.20
2024-02-02T18:32:21.398Z,3.17
2024-02-02T18:34:49.265Z,3.45
2024-02-02T18:37:16.664Z,3.17
2024-02-02T18:39:43.636Z,3.35
2024-02-02T18:42:10.767Z,3.42
2024-02-02T18:44:37.726Z,3.13
2024-02-02T18:47:05.216Z,3.05
2024-02-02T18:49:32.312Z,3.60
2024-02-02T18:51:59.401Z,3.90
2024-02-02T18:54:27.003Z,4.30
2024-02-02T18:56:54.059Z,3.20
2024-02-02T18:59:21.064Z,3.95
2024-02-02T19:01:48.295Z,3.65
2024-02-02T19:04:15.429Z,3.92
2024-02-02T19:06:42.818Z,3.78
2024-02-02T19:09:10.105Z,3.70
2024-02-02T19:11:40.321Z,3.53
2024-02-02T19:14:42.027Z,4.05
2024-02-02T19:17:16.102Z,3.65
2024-02-02T19:19:48.702Z,3.40
2024-02-02T19:22:18.530Z,3.50
2024-02-02T19:24:48.867Z,3.70
2024-02-02T19:27:16.902Z,3.60
2024-02-02T19:29:43.926Z,4.13
2024-02-02T19:32:14.091Z,3.97
2024-02-02T19:34:42.266Z,3.75
2024-02-02T19:37:09.602Z,3.80
2024-02-02T19:39:36.745Z,3.58
2024-02-02T19:42:04.410Z,3.45
2024-02-02T19:44:31.611Z,3.83
2024-02-02T19:46:58.760Z,3.33
2024-02-02T19:49:26.205Z,3.22
2024-02-02T19:51:53.290Z,2.95
2024-02-02T19:54:20.636Z,3.38
2024-02-02T19:56:47.748Z,3.63
2024-02-02T19:59:16.089Z,3.72
2024-02-02T20:01:49.371Z,3.58
2024-02-02T20:04:16.590Z,3.22
2024-02-02T20:06:45.591Z,3.20
2024-02-02T20:09:15.074Z,2.95
2024-02-02T20:11:42.145Z,2.80
2024-02-02T20:14:09.245Z,3.58
2024-02-02T20:16:36.223Z,3.67
2024-02-02T20:19:03.303Z,3.00
2024-02-02T20:21:30.604Z,3.22
2024-02-02T20:23:57.932Z,3.05
2024-02-02T20:26:25.770Z,3.65
2024-02-02T20:28:57.824Z,2.60
2024-02-02T20:31:24.865Z,2.85
2024-02-02T20:33:56.451Z,2.70
2024-02-02T20:36:27.844Z,2.85
2024-02-02T20:38:55.183Z,2.55
2024-02-02T20:41:28.048Z,2.55
2024-02-02T20:43:55.773Z,2.60
2024-02-02T20:46:22.946Z,2.70
2024-02-02T20:48:50.421Z,2.75
2024-02-02T20:51:17.959Z,2.70
2024-02-02T20:53:45.296Z,2.65
2024-02-02T20:56:12.671Z,3.00
2024-02-02T20:58:39.689Z,3.78
2024-02-02T21:01:07.045Z,2.45
2024-02-02T21:03:34.905Z,3.38
2024-02-02T21:06:02.340Z,2.90
2024-02-02T21:08:29.583Z,4.22
2024-02-02T21:10:56.895Z,2.70
2024-02-02T21:13:23.972Z,2.58
2024-02-02T21:15:51.206Z,3.28
2024-02-02T21:18:18.514Z,3.20
2024-02-02T21:20:50.676Z,3.53
2024-02-02T21:23:19.192Z,3.00
2024-02-02T21:25:46.928Z,3.08
2024-02-02T21:28:15.549Z,3.15
2024-02-02T21:30:44.604Z,3.38
2024-02-02T21:33:12.084Z,3.25
2024-02-02T21:35:39.489Z,3.17
2024-02-02T21:38:06.723Z,3.55
2024-02-02T21:40:33.780Z,3.67
2024-02-02T21:43:00.703Z,3.60
2024-02-02T21:45:28.691Z,3.45
2024-02-02T21:47:55.808Z,3.45
2024-02-02T21:50:23.071Z,3.95
2024-02-02T21:52:50.086Z,3.90
2024-02-02T21:55:17.233Z,4.85
2024-02-02T21:57:44.497Z,4.38
2024-02-02T22:00:14.110Z,5.20
2024-02-02T22:02:41.517Z,3.97
2024-02-02T22:05:08.738Z,4.50
2024-02-02T22:07:38.248Z,4.50
2024-02-02T22:10:06.244Z,4.22
2024-02-02T22:12:33.241Z,4.40
2024-02-02T22:15:00.237Z,5.57
2024-02-02T22:17:27.894Z,4.63
2024-02-02T22:19:54.991Z,4.30
2024-02-02T22:22:21.975Z,5.05
2024-02-02T22:24:49.020Z,5.40
2024-02-02T22:27:20.385Z,4.38
2024-02-02T22:29:48.956Z,5.38
2024-02-02T22:32:19.490Z,5.30
2024-02-02T22:34:47.381Z,5.57
2024-02-02T22:37:15.603Z,5.18
2024-02-02T22:39:42.881Z,5.53
2024-02-02T22:42:10.033Z,4.72
2024-02-02T22:44:37.079Z,4.75
2024-02-02T22:47:04.333Z,4.85
2024-02-02T22:49:33.135Z,4.82
2024-02-02T22:52:00.517Z,4.65
2024-02-02T22:54:27.675Z,4.57
2024-02-02T22:56:54.829Z,4.72
2024-02-02T22:59:21.893Z,5.20
2024-02-02T23:01:48.982Z,5.00
2024-02-02T23:04:16.130Z,5.65
2024-02-02T23:06:43.250Z,5.10
2024-02-02T23:09:10.391Z,4.88
2024-02-02T23:11:37.595Z,4.75
2024-02-02T23:14:05.108Z,5.28
2024-02-02T23:16:32.075Z,5.40
2024-02-02T23:18:59.337Z,4.85
2024-02-02T23:21:26.351Z,4.88
2024-02-02T23:23:53.247Z,4.88
2024-02-02T23:26:20.593Z,4.78
2024-02-02T23:28:47.914Z,5.20
2024-02-02T23:31:15.370Z,4.97
2024-02-02T23:33:43.475Z,4.85
2024-02-02T23:36:11.036Z,5.55
2024-02-02T23:38:38.014Z,5.75
2024-02-02T23:41:05.153Z,5.82
2024-02-02T23:43:34.075Z,5.60
2024-02-02T23:46:01.482Z,5.50
2024-02-02T23:48:29.193Z,6.05
2024-02-02T23:50:56.268Z,5.70
2024-02-02T23:53:23.318Z,5.20
2024-02-02T23:55:50.350Z,5.53
2024-02-02T23:58:18.137Z,5.38
